Time;durP1;ratioP1;P1;durP2;ratioP2;P2;SDS_P1;SDS_P2;PMS_P1;PMS_P2;Temp;Humidity;BMP_temperature;BMP_pressure;BME280_temperature;BME280_humidity;BME280_pressure;Samples;Min_cycle;Max_cycle;Signal;HPM_P1;HPM_P2
2022/09/11 00:02:28;;;;;;;4.32;2.15;;;15.00;45.70;;;;;;7368215;19;20115;-65
2022/09/11 00:04:58;;;;;;;5.90;2.10;;;15.00;45.80;;;;;;7367275;19;20126;-67
2022/09/11 00:07:28;;;;;;;3.25;1.90;;;15.00;45.60;;;;;;7387279;19;20502;-67
2022/09/11 00:09:57;;;;;;;2.67;2.00;;;15.00;45.40;;;;;;7366948;19;20026;-68
2022/09/11 00:12:27;;;;;;;3.17;1.80;;;15.00;45.50;;;;;;7365810;19;20019;-65
2022/09/11 00:15:00;;;;;;;3.85;1.92;;;15.00;45.60;;;;;;7365311;19;20062;-66
2022/09/11 00:17:29;;;;;;;2.85;1.92;;;15.00;45.70;;;;;;7361725;19;20022;-66
2022/09/11 00:19:59;;;;;;;3.38;1.70;;;14.90;45.50;;;;;;7364561;19;20034;-66
2022/09/11 00:22:29;;;;;;;4.32;2.08;;;14.90;45.40;;;;;;7388750;19;20376;-66
2022/09/11 00:24:59;;;;;;;4.40;2.40;;;14.90;45.60;;;;;;7366074;19;20007;-66
2022/09/11 00:27:29;;;;;;;2.95;2.00;;;14.90;45.60;;;;;;7363031;19;20010;-66
2022/09/11 00:30:02;;;;;;;4.47;2.25;;;14.90;45.50;;;;;;7366015;19;20013;-67
2022/09/11 00:32:32;;;;;;;6.03;2.30;;;15.00;44.20;;;;;;7368177;19;20011;-67
2022/09/11 00:35:02;;;;;;;4.97;2.40;;;15.00;42.10;;;;;;7364361;19;20374;-67
2022/09/11 00:37:31;;;;;;;2.60;2.08;;;15.00;42.40;;;;;;7379096;19;20035;-68
2022/09/11 00:40:01;;;;;;;3.78;2.50;;;15.10;42.00;;;;;;7387640;19;20368;-67
2022/09/11 00:42:31;;;;;;;2.58;2.03;;;15.10;42.80;;;;;;7367541;19;20821;-66
2022/09/11 00:45:08;;;;;;;3.30;2.15;;;15.10;42.70;;;;;;7364318;19;20478;-66
2022/09/11 00:47:37;;;;;;;3.67;2.20;;;15.10;41.50;;;;;;7366310;19;20042;-66
2022/09/11 00:50:16;;;;;;;4.35;2.47;;;15.10;40.90;;;;;;7365469;19;20470;-66
2022/09/11 00:52:52;;;;;;;3.17;2.00;;;15.10;39.90;;;;;;7365363;19;20019;-66
2022/09/11 00:55:25;;;;;;;4.00;2.03;;;15.20;39.00;;;;;;7382017;19;20011;-66
2022/09/11 00:57:59;;;;;;;6.68;2.60;;;15.20;37.50;;;;;;7365620;19;20047;-65
2022/09/11 01:00:32;;;;;;;4.40;2.05;;;15.20;38.30;;;;;;7363543;19;20034;-67
2022/09/11 01:03:02;;;;;;;4.13;1.92;;;15.20;39.10;;;;;;7367619;19;20018;-67
2022/09/11 01:05:34;;;;;;;2.80;2.10;;;15.20;38.40;;;;;;7362064;19;20350;-67
2022/09/11 01:08:05;;;;;;;4.35;2.38;;;15.20;38.40;;;;;;7367277;19;20011;-67
2022/09/11 01:10:43;;;;;;;2.65;2.20;;;15.30;37.40;;;;;;7364305;19;20497;-67
2022/09/11 01:13:24;;;;;;;4.50;2.00;;;15.30;37.00;;;;;;7389769;19;20034;-67
2022/09/11 01:16:04;;;;;;;2.90;2.03;;;15.30;36.90;;;;;;7358889;19;20010;-67
2022/09/11 01:18:40;;;;;;;3.97;2.20;;;15.30;37.50;;;;;;7366171;19;20015;-67
2022/09/11 01:21:32;;;;;;;3.75;2.30;;;15.40;37.10;;;;;;7365410;19;21292;-66
2022/09/11 01:24:17;;;;;;;3.53;2.42;;;15.30;36.40;;;;;;7366723;19;20007;-66
2022/09/11 01:27:09;;;;;;;3.50;2.70;;;15.40;36.90;;;;;;7360513;19;20689;-66
2022/09/11 01:29:46;;;;;;;4.22;2.72;;;15.30;36.30;;;;;;7366782;19;20010;-66
2022/09/11 01:32:21;;;;;;;7.65;2.80;;;15.30;37.40;;;;;;7365269;19;20010;-67
2022/09/11 01:34:57;;;;;;;5.93;2.60;;;15.30;37.40;;;;;;7364950;19;20368;-65
2022/09/11 01:37:36;;;;;;;5.72;2.90;;;15.30;37.50;;;;;;7384322;19;20078;-66
2022/09/11 01:40:11;;;;;;;6.20;3.25;;;15.30;37.50;;;;;;7364176;19;20010;-65
2022/09/11 01:42:45;;;;;;;5.72;3.10;;;15.20;38.20;;;;;;7366216;19;20077;-66
2022/09/11 01:45:18;;;;;;;11.43;3.50;;;15.30;38.60;;;;;;7363764;19;20091;-66
2022/09/11 01:47:52;;;;;;;3.22;2.75;;;15.30;38.20;;;;;;7364655;19;20010;-66
2022/09/11 01:50:24;;;;;;;4.17;3.13;;;15.30;37.90;;;;;;7362285;19;20409;-66
2022/09/11 01:52:58;;;;;;;5.65;3.35;;;15.30;37.60;;;;;;7365595;19;20427;-67
2022/09/11 01:55:33;;;;;;;4.95;3.15;;;15.30;37.90;;;;;;7380338;19;20462;-66
2022/09/11 01:58:08;;;;;;;5.90;3.58;;;15.30;37.60;;;;;;7364412;19;20454;-67
2022/09/11 02:00:43;;;;;;;6.57;3.35;;;15.30;38.60;;;;;;7363861;19;20093;-67
2022/09/11 02:03:21;;;;;;;4.47;3.13;;;15.30;37.50;;;;;;7365363;19;20091;-67
2022/09/11 02:05:55;;;;;;;4.68;3.30;;;15.30;37.60;;;;;;7365928;19;20074;-67
2022/09/11 02:08:31;;;;;;;8.80;3.72;;;15.30;38.50;;;;;;7367999;19;20010;-66
2022/09/11 02:11:07;;;;;;;7.50;3.60;;;15.30;37.80;;;;;;7369229;19;20042;-66
2022/09/11 02:13:47;;;;;;;4.60;3.25;;;15.30;38.20;;;;;;7367799;19;20022;-67
2022/09/11 02:16:24;;;;;;;7.80;4.30;;;15.40;38.30;;;;;;7388501;19;20041;-66
2022/09/11 02:19:02;;;;;;;5.53;3.88;;;15.40;37.60;;;;;;7368909;19;20022;-67
2022/09/11 02:21:32;;;;;;;5.13;3.95;;;15.40;37.60;;;;;;7367231;19;20075;-66
2022/09/11 02:24:03;;;;;;;5.93;3.83;;;15.40;38.20;;;;;;7370277;19;20074;-66
2022/09/11 02:26:38;;;;;;;6.80;4.35;;;15.40;38.40;;;;;;7368166;19;20011;-66
2022/09/11 02:29:09;;;;;;;6.55;3.80;;;15.40;38.60;;;;;;7369762;19;20070;-66
2022/09/11 02:31:42;;;;;;;5.70;3.67;;;15.40;38.30;;;;;;7384809;19;20458;-67
2022/09/11 02:34:13;;;;;;;10.00;3.87;;;15.40;38.20;;;;;;7391797;19;20078;-66
2022/09/11 02:37:05;;;;;;;6.38;4.03;;;15.40;38.40;;;;;;7366810;19;20014;-66
2022/09/11 02:39:55;;;;;;;5.75;3.63;;;15.40;37.60;;;;;;7368101;19;20014;-66
2022/09/11 02:42:37;;;;;;;7.60;4.13;;;15.40;38.30;;;;;;7367507;19;20041;-66
2022/09/11 02:45:18;;;;;;;5.80;3.72;;;15.40;38.60;;;;;;7370449;19;20010;-66
2022/09/11 02:48:01;;;;;;;5.63;3.92;;;15.40;39.10;;;;;;7367812;19;20027;-66
2022/09/11 02:50:39;;;;;;;8.23;4.07;;;15.40;38.60;;;;;;7367025;19;20028;-65
2022/09/11 02:53:14;;;;;;;7.25;3.90;;;15.40;38.40;;;;;;7368222;19;20029;-66
2022/09/11 02:55:56;;;;;;;5.55;3.70;;;15.30;37.90;;;;;;7367255;19;20478;-68
2022/09/11 02:58:29;;;;;;;5.07;4.20;;;15.30;38.50;;;;;;7389081;19;20003;-67
2022/09/11 03:01:00;;;;;;;4.70;3.90;;;15.30;39.50;;;;;;7371355;19;20475;-67
2022/09/11 03:03:39;;;;;;;5.78;3.75;;;15.30;39.20;;;;;;7374331;19;20458;-66
2022/09/11 03:06:12;;;;;;;5.78;3.55;;;15.30;39.50;;;;;;7375282;19;20010;-66
2022/09/11 03:08:42;;;;;;;5.63;4.13;;;15.30;39.40;;;;;;7376416;19;20356;-66
2022/09/11 03:11:14;;;;;;;6.63;4.20;;;15.30;39.90;;;;;;7374265;19;20009;-64
2022/09/11 03:13:44;;;;;;;9.23;4.10;;;15.30;39.00;;;;;;7375286;19;20360;-65
2022/09/11 03:16:14;;;;;;;4.90;4.00;;;15.30;39.40;;;;;;7394120;19;20011;-66
2022/09/11 03:18:46;;;;;;;5.90;4.30;;;15.30;40.00;;;;;;7374927;19;20015;-65
2022/09/11 03:21:16;;;;;;;6.70;4.18;;;15.30;40.00;;;;;;7374083;19;20010;-67
2022/09/11 03:23:46;;;;;;;6.43;4.30;;;15.30;40.30;;;;;;7374709;19;20010;-66
2022/09/11 03:26:16;;;;;;;9.55;4.75;;;15.20;39.80;;;;;;7374459;19;20030;-66
2022/09/11 03:28:46;;;;;;;8.98;3.97;;;15.30;40.60;;;;;;7375267;19;20010;-65
2022/09/11 03:31:15;;;;;;;8.40;4.63;;;15.30;40.40;;;;;;7395679;19;20498;-65
2022/09/11 03:33:48;;;;;;;6.32;4.43;;;15.30;40.40;;;;;;7374369;19;20017;-66
2022/09/11 03:36:18;;;;;;;7.97;4.75;;;15.30;40.60;;;;;;7372131;19;20489;-66
2022/09/11 03:38:48;;;;;;;6.90;4.68;;;15.30;40.70;;;;;;7374416;19;20043;-65
2022/09/11 03:41:17;;;;;;;7.15;5.07;;;15.30;40.80;;;;;;7373599;19;20006;-66
2022/09/11 03:43:47;;;;;;;9.02;4.70;;;15.30;40.00;;;;;;7374604;19;20007;-66
2022/09/11 03:46:17;;;;;;;8.63;5.05;;;15.20;41.20;;;;;;7395124;19;20030;-66
2022/09/11 03:48:50;;;;;;;10.93;5.72;;;15.20;40.50;;;;;;7373908;19;20038;-66
2022/09/11 03:51:19;;;;;;;8.23;5.55;;;15.20;40.90;;;;;;7373318;19;20029;-65
2022/09/11 03:53:49;;;;;;;9.98;5.00;;;15.30;40.40;;;;;;7373123;19;20006;-66
2022/09/11 03:56:19;;;;;;;8.35;5.43;;;15.20;40.80;;;;;;7373189;19;20010;-66
2022/09/11 03:58:49;;;;;;;8.32;5.00;;;15.20;41.60;;;;;;7374313;19;20018;-65
2022/09/11 04:01:20;;;;;;;8.88;4.85;;;15.30;41.10;;;;;;7395529;19;20010;-66
2022/09/11 04:03:52;;;;;;;7.60;5.75;;;15.30;40.20;;;;;;7373422;19;20024;-65
2022/09/11 04:06:22;;;;;;;8.13;5.20;;;15.30;40.20;;;;;;7371705;19;20015;-65
2022/09/11 04:08:52;;;;;;;6.72;4.63;;;15.30;40.30;;;;;;7373748;19;20006;-66
2022/09/11 04:11:21;;;;;;;9.82;6.05;;;15.30;40.10;;;;;;7371400;19;20064;-66
2022/09/11 04:13:53;;;;;;;6.38;5.15;;;15.30;39.30;;;;;;7371881;19;20018;-66
2022/09/11 04:16:23;;;;;;;6.38;5.68;;;15.30;39.50;;;;;;7394415;19;20025;-65
2022/09/11 04:18:55;;;;;;;7.70;5.03;;;15.30;39.60;;;;;;7373674;19;20773;-66
2022/09/11 04:21:26;;;;;;;7.65;5.43;;;15.30;39.60;;;;;;7371641;19;20017;-66
2022/09/11 04:23:58;;;;;;;7.22;5.25;;;15.40;40.00;;;;;;7371888;19;20372;-65
2022/09/11 04:26:31;;;;;;;6.72;5.45;;;15.40;39.10;;;;;;7371935;19;20007;-65
2022/09/11 04:29:01;;;;;;;7.15;5.03;;;15.40;38.90;;;;;;7373682;19;20092;-65
2022/09/11 04:31:31;;;;;;;10.20;5.82;;;15.40;39.00;;;;;;7392864;19;20018;-65
2022/09/11 04:34:03;;;;;;;10.82;5.65;;;15.40;38.80;;;;;;7372713;19;20002;-66
2022/09/11 04:36:33;;;;;;;8.82;5.68;;;15.40;38.30;;;;;;7369821;19;20501;-66
2022/09/11 04:39:03;;;;;;;9.43;5.90;;;15.40;38.80;;;;;;7373199;19;20059;-66
2022/09/11 04:41:33;;;;;;;10.65;5.70;;;15.30;39.10;;;;;;7370920;19;20467;-67
2022/09/11 04:44:03;;;;;;;7.68;6.07;;;15.30;39.40;;;;;;7372990;19;20521;-66
2022/09/11 04:46:34;;;;;;;9.32;5.43;;;15.30;40.00;;;;;;7392228;19;20015;-66
2022/09/11 04:49:07;;;;;;;6.47;5.45;;;15.30;40.50;;;;;;7373111;19;20484;-66
2022/09/11 04:51:38;;;;;;;7.18;5.50;;;15.30;40.10;;;;;;7370937;19;20047;-66
2022/09/11 04:54:08;;;;;;;7.53;5.68;;;15.30;40.80;;;;;;7372344;19;20010;-66
2022/09/11 04:56:39;;;;;;;7.13;6.10;;;15.20;40.60;;;;;;7369811;19;20018;-65
2022/09/11 04:59:14;;;;;;;9.93;5.72;;;15.20;41.00;;;;;;7372413;19;20011;-66
2022/09/11 05:01:45;;;;;;;7.03;5.75;;;15.30;40.70;;;;;;7371079;19;20104;-67
2022/09/11 05:04:19;;;;;;;6.30;5.70;;;15.30;41.50;;;;;;7394165;19;20007;-65
2022/09/11 05:06:55;;;;;;;8.15;5.93;;;15.30;40.90;;;;;;7368653;19;20035;-65
2022/09/11 05:09:25;;;;;;;8.13;5.72;;;15.30;41.10;;;;;;7370093;19;20003;-65
2022/09/11 05:11:55;;;;;;;7.53;6.53;;;15.30;41.00;;;;;;7370979;19;20015;-66
2022/09/11 05:14:27;;;;;;;10.73;6.05;;;15.20;40.60;;;;;;7371846;19;20018;-66
2022/09/11 05:16:56;;;;;;;11.75;6.20;;;15.20;41.40;;;;;;7369923;19;20399;-65
2022/09/11 05:19:29;;;;;;;7.90;6.15;;;15.20;41.70;;;;;;7392060;19;20099;-65
2022/09/11 05:21:58;;;;;;;7.50;5.85;;;15.20;41.60;;;;;;7370327;19;20026;-65
2022/09/11 05:24:28;;;;;;;11.20;6.60;;;15.20;41.40;;;;;;7370494;19;20010;-66
2022/09/11 05:26:58;;;;;;;11.77;6.60;;;15.30;40.90;;;;;;7371073;19;20010;-66
2022/09/11 05:29:28;;;;;;;9.80;6.63;;;15.30;40.70;;;;;;7371058;19;20018;-65
2022/09/11 05:32:02;;;;;;;7.28;6.13;;;15.30;41.10;;;;;;7369929;19;20047;-65
2022/09/11 05:34:34;;;;;;;10.55;6.45;;;15.30;41.00;;;;;;7393222;19;20781;-65
2022/09/11 05:37:04;;;;;;;9.00;6.15;;;15.30;41.10;;;;;;7368725;19;20022;-65
2022/09/11 05:39:34;;;;;;;8.35;6.18;;;15.30;41.30;;;;;;7369320;19;20038;-65
2022/09/11 05:42:04;;;;;;;7.68;5.93;;;15.30;40.50;;;;;;7369962;19;20010;-65
2022/09/11 05:44:35;;;;;;;8.70;6.95;;;15.30;40.80;;;;;;7370583;19;20034;-64
2022/09/11 05:47:06;;;;;;;10.40;6.20;;;15.30;39.80;;;;;;7369147;19;20034;-65
2022/09/11 05:49:38;;;;;;;9.07;6.22;;;15.40;40.00;;;;;;7391345;19;20473;-66
2022/09/11 05:52:08;;;;;;;10.13;6.13;;;15.40;40.00;;;;;;7369374;19;20011;-66
2022/09/11 05:54:38;;;;;;;8.90;6.45;;;15.40;39.20;;;;;;7369750;19;20014;-66
2022/09/11 05:57:08;;;;;;;8.45;6.25;;;15.40;39.80;;;;;;7368772;19;20010;-66
2022/09/11 05:59:38;;;;;;;7.45;5.75;;;15.40;39.70;;;;;;7369968;19;20470;-65
2022/09/11 06:02:08;;;;;;;7.70;6.43;;;15.40;39.50;;;;;;7369840;19;20371;-65
2022/09/11 06:04:40;;;;;;;8.45;5.90;;;15.40;40.20;;;;;;7389704;19;20015;-66
2022/09/11 06:07:10;;;;;;;8.70;6.38;;;15.40;40.00;;;;;;7367779;19;20410;-65
2022/09/11 06:09:40;;;;;;;8.75;6.20;;;15.50;40.10;;;;;;7369235;19;20014;-65
2022/09/11 06:12:11;;;;;;;8.35;5.80;;;15.50;39.80;;;;;;7368947;19;20458;-66
2022/09/11 06:14:42;;;;;;;9.82;6.10;;;15.50;39.40;;;;;;7369838;19;20010;-65
2022/09/11 06:17:12;;;;;;;9.13;6.10;;;15.50;39.50;;;;;;7368790;19;20013;-65
2022/09/11 06:19:44;;;;;;;8.60;6.50;;;15.60;39.90;;;;;;7369044;19;20486;-66
2022/09/11 06:22:14;;;;;;;7.93;6.43;;;15.60;39.00;;;;;;7390596;19;20007;-65
2022/09/11 06:24:44;;;;;;;9.38;6.60;;;15.60;39.00;;;;;;7369299;19;20011;-65
2022/09/11 06:27:14;;;;;;;7.90;6.55;;;15.60;37.80;;;;;;7368694;19;20010;-66
2022/09/11 06:29:44;;;;;;;9.23;6.63;;;15.70;38.00;;;;;;7368570;19;20007;-66
2022/09/11 06:32:14;;;;;;;8.68;6.25;;;15.70;37.90;;;;;;7368982;19;20030;-65
2022/09/11 06:34:46;;;;;;;9.25;6.03;;;15.70;37.80;;;;;;7369767;19;20042;-65
2022/09/11 06:37:16;;;;;;;7.00;6.30;;;15.70;37.80;;;;;;7402588;19;20006;-65
2022/09/11 06:39:46;;;;;;;6.93;6.07;;;15.70;37.80;;;;;;7382564;19;20010;-65
2022/09/11 06:42:16;;;;;;;8.05;6.07;;;15.60;37.70;;;;;;7382084;19;20467;-65
2022/09/11 06:44:46;;;;;;;9.65;6.22;;;15.70;38.30;;;;;;7383652;19;20050;-65
2022/09/11 06:47:19;;;;;;;11.00;6.80;;;15.70;37.80;;;;;;7381795;19;20022;-66
2022/09/11 06:49:51;;;;;;;8.23;6.80;;;15.70;37.80;;;;;;7381330;19;20394;-66
2022/09/11 06:52:21;;;;;;;9.55;6.25;;;15.70;37.80;;;;;;7403724;19;20010;-66
2022/09/11 06:54:52;;;;;;;8.25;6.50;;;15.80;37.90;;;;;;7382908;19;20006;-66
2022/09/11 06:57:21;;;;;;;11.13;6.60;;;15.90;38.00;;;;;;7381498;19;20755;-65
2022/09/11 06:59:51;;;;;;;7.45;6.47;;;15.80;36.00;;;;;;7380271;19;20017;-65
2022/09/11 07:02:21;;;;;;;8.48;6.47;;;15.80;36.90;;;;;;7381528;19;20003;-65
2022/09/11 07:04:54;;;;;;;8.60;6.28;;;15.90;37.00;;;;;;7382564;19;20026;-67
2022/09/11 07:07:23;;;;;;;7.72;6.28;;;15.90;37.00;;;;;;7402038;19;20021;-66
2022/09/11 07:09:53;;;;;;;11.77;7.30;;;15.80;36.60;;;;;;7382112;19;20012;-66
2022/09/11 07:12:23;;;;;;;10.32;6.70;;;15.90;37.80;;;;;;7381611;19;20006;-65
2022/09/11 07:14:53;;;;;;;11.82;6.88;;;15.90;34.40;;;;;;7382930;19;20010;-66
2022/09/11 07:17:22;;;;;;;8.77;6.47;;;15.90;35.10;;;;;;7381125;19;20006;-66
2022/09/11 07:19:55;;;;;;;15.88;7.07;;;16.00;36.10;;;;;;7381829;19;20034;-66
2022/09/11 07:22:24;;;;;;;10.55;6.80;;;15.90;35.30;;;;;;7401363;19;20406;-65
2022/09/11 07:24:59;;;;;;;11.55;6.80;;;16.00;35.40;;;;;;7381783;19;20017;-65
2022/09/11 07:27:34;;;;;;;9.65;6.32;;;16.10;34.50;;;;;;7379982;19;20010;-66
2022/09/11 07:30:04;;;;;;;7.80;7.00;;;16.20;34.00;;;;;;7381952;19;20007;-65
2022/09/11 07:32:34;;;;;;;7.50;6.13;;;16.20;32.40;;;;;;7380038;19;20014;-65
2022/09/11 07:35:07;;;;;;;7.97;6.22;;;16.20;31.90;;;;;;7382488;19;20011;-66
2022/09/11 07:37:37;;;;;;;6.95;6.05;;;16.20;31.70;;;;;;7401227;19;20014;-66
2022/09/11 07:40:08;;;;;;;8.55;6.00;;;16.30;32.20;;;;;;7380755;19;20014;-66
2022/09/11 07:42:38;;;;;;;9.52;6.68;;;16.50;32.00;;;;;;7379061;19;20082;-65
2022/09/11 07:45:09;;;;;;;7.60;6.72;;;16.60;30.00;;;;;;7382013;19;20035;-65
2022/09/11 07:47:38;;;;;;;7.43;6.20;;;16.70;30.00;;;;;;7372339;19;20003;-66
2022/09/11 07:50:11;;;;;;;8.68;6.53;;;16.70;28.80;;;;;;7374474;19;20091;-66
2022/09/11 07:52:41;;;;;;;9.63;6.63;;;16.60;29.80;;;;;;7373308;19;20010;-66
2022/09/11 07:55:12;;;;;;;8.95;6.63;;;16.70;30.60;;;;;;7396546;19;20014;-66
2022/09/11 07:57:44;;;;;;;8.00;6.55;;;16.90;27.10;;;;;;7371391;19;20010;-66
2022/09/11 08:00:15;;;;;;;8.55;7.05;;;16.90;26.80;;;;;;7373790;19;20018;-66
2022/09/11 08:02:45;;;;;;;6.68;6.03;;;17.10;24.70;;;;;;7372276;19;20015;-66
2022/09/11 08:05:17;;;;;;;8.27;6.97;;;17.20;24.20;;;;;;7374076;19;20518;-65
2022/09/11 08:07:47;;;;;;;12.25;6.70;;;17.20;22.60;;;;;;7369507;19;20014;-66
2022/09/11 08:10:17;;;;;;;7.63;6.07;;;17.00;23.70;;;;;;7396121;19;20031;-65
2022/09/11 08:13:04;;;;;;;9.90;6.78;;;17.20;25.40;;;;;;7373187;19;20010;-66
2022/09/11 08:15:38;;;;;;;8.52;7.63;;;17.10;19.90;;;;;;7372830;19;20520;-65
2022/09/11 08:18:07;;;;;;;6.78;6.00;;;17.40;20.10;;;;;;7372544;19;20002;-65
2022/09/11 08:20:40;;;;;;;9.35;7.13;;;17.60;17.80;;;;;;7371593;19;20010;-65
2022/09/11 08:23:11;;;;;;;7.88;6.10;;;17.20;20.00;;;;;;7373432;19;20010;-65
2022/09/11 08:25:41;;;;;;;7.15;6.20;;;17.90;16.80;;;;;;7372826;19;20042;-66
2022/09/11 08:28:11;;;;;;;7.70;6.80;;;18.60;13.60;;;;;;7394555;19;20029;-65
2022/09/11 08:30:40;;;;;;;6.80;5.97;;;18.10;7.20;;;;;;7371042;19;20517;-64
2022/09/11 08:33:11;;;;;;;8.65;5.82;;;18.50;8.00;;;;;;7373285;19;20007;-65
2022/09/11 08:35:44;;;;;;;8.63;6.38;;;18.50;8.30;;;;;;7373130;19;20011;-66
2022/09/11 08:38:13;;;;;;;9.55;6.50;;;18.00;9.50;;;;;;7371726;19;20463;-65
2022/09/11 08:40:43;;;;;;;6.68;5.97;;;17.70;12.90;;;;;;7371197;19;20046;-65
2022/09/11 08:43:21;;;;;;;7.90;5.75;;;17.70;13.10;;;;;;7394320;19;20021;-65
2022/09/11 08:45:56;;;;;;;9.35;6.53;;;17.90;11.30;;;;;;7371922;19;20036;-66
2022/09/11 08:48:33;;;;;;;6.78;6.07;;;17.70;11.60;;;;;;7370856;19;20007;-65
2022/09/11 08:51:07;;;;;;;6.32;5.50;;;18.00;13.30;;;;;;7370866;19;20015;-64
2022/09/11 08:53:37;;;;;;;8.27;6.20;;;18.30;12.30;;;;;;7370416;19;20470;-65
2022/09/11 08:56:11;;;;;;;7.53;5.55;;;18.50;9.50;;;;;;7371855;19;20239;-65
2022/09/11 08:58:52;;;;;;;7.88;5.28;;;18.90;6.40;;;;;;7370667;19;20490;-65
2022/09/11 09:01:29;;;;;;;6.82;5.38;;;18.80;4.20;;;;;;7392441;19;20018;-65
2022/09/11 09:04:16;;;;;;;7.38;5.38;;;18.90;6.90;;;;;;7371895;19;20010;-66
2022/09/11 09:07:01;;;;;;;7.97;5.03;;;19.50;2.90;;;;;;7368772;19;20014;-65
2022/09/11 09:09:42;;;;;;;6.65;5.40;;;18.60;2.30;;;;;;7371129;19;20024;-63
2022/09/11 09:12:20;;;;;;;6.53;5.65;;;18.20;2.80;;;;;;7370534;19;20497;-65
2022/09/11 09:15:05;;;;;;;7.45;5.78;;;18.40;5.70;;;;;;7372054;19;20011;-65
2022/09/11 09:17:40;;;;;;;6.70;5.75;;;18.60;3.30;;;;;;7368421;19;20011;-65
2022/09/11 09:20:15;;;;;;;7.05;5.70;;;19.00;1.10;;;;;;7370304;19;20010;-65
2022/09/11 09:22:53;;;;;;;8.48;6.00;;;19.00;1.70;;;;;;7369530;19;20038;-65
2022/09/11 09:25:25;;;;;;;8.38;5.38;;;18.60;1.00;;;;;;7393244;19;20011;-65
2022/09/11 09:28:00;;;;;;;7.65;5.40;;;19.00;1.00;;;;;;7369939;19;20011;-66
2022/09/11 09:30:39;;;;;;;6.57;5.72;;;19.10;1.00;;;;;;7369111;19;20300;-65
2022/09/11 09:33:26;;;;;;;5.70;5.20;;;18.80;1.00;;;;;;7370316;19;20478;-64
2022/09/11 09:35:56;;;;;;;6.70;6.00;;;18.50;1.00;;;;;;7369962;19;20021;-64
2022/09/11 09:38:32;;;;;;;6.88;5.80;;;18.30;1.00;;;;;;7368655;19;20101;-65
2022/09/11 09:41:26;;;;;;;7.10;5.70;;;18.70;1.00;;;;;;7369404;19;20010;-66
2022/09/11 09:44:03;;;;;;;5.32;4.82;;;18.90;1.00;;;;;;7370181;19;20030;-66
2022/09/11 09:46:40;;;;;;;5.70;5.07;;;19.20;1.00;;;;;;7388865;19;20038;-65
2022/09/11 09:49:11;;;;;;;7.25;5.47;;;19.10;1.00;;;;;;7368223;19;20007;-67
2022/09/11 09:51:42;;;;;;;5.88;5.03;;;19.60;1.00;;;;;;7367882;19;20014;-66
2022/09/11 09:54:18;;;;;;;6.07;5.47;;;19.80;1.00;;;;;;7370901;19;20026;-66
2022/09/11 09:56:56;;;;;;;7.15;5.15;;;19.30;1.00;;;;;;7368550;19;20014;-65
2022/09/11 09:59:33;;;;;;;6.35;4.88;;;19.20;1.00;;;;;;7368267;19;20037;-65
2022/09/11 10:02:03;;;;;;;6.82;6.00;;;19.30;1.00;;;;;;7367871;19;20086;-66
2022/09/11 10:04:33;;;;;;;12.73;5.88;;;18.90;1.00;;;;;;7390945;19;20355;-67
2022/09/11 10:07:10;;;;;;;7.40;5.93;;;18.70;1.00;;;;;;7367485;19;20014;-66
2022/09/11 10:09:48;;;;;;;8.80;6.28;;;18.80;1.00;;;;;;7367819;19;20069;-65
2022/09/11 10:12:23;;;;;;;7.95;6.55;;;18.50;1.00;;;;;;7368676;19;20072;-65
2022/09/11 10:14:57;;;;;;;7.70;6.65;;;18.20;1.00;;;;;;7369413;19;20011;-66
2022/09/11 10:17:34;;;;;;;;;;;18.00;1.10;;;;;;7367630;19;20013;-66
2022/09/11 10:20:21;;;;;;;7.03;6.15;;;17.80;2.50;;;;;;7368832;19;19939;-65
2022/09/11 10:22:52;;;;;;;7.30;6.60;;;18.20;2.50;;;;;;7368617;19;20010;-65
2022/09/11 10:25:28;;;;;;;7.18;6.47;;;18.10;1.00;;;;;;7391547;19;20007;-64
2022/09/11 10:28:04;;;;;;;9.63;6.03;;;18.10;1.00;;;;;;7368276;19;20021;-65
2022/09/11 10:30:37;;;;;;;7.10;5.95;;;18.60;1.00;;;;;;7367029;19;20038;-66
2022/09/11 10:33:17;;;;;;;8.82;6.13;;;18.80;1.00;;;;;;7368319;19;20018;-65
2022/09/11 10:35:53;;;;;;;7.45;6.50;;;19.20;1.00;;;;;;7369194;19;20014;-66
2022/09/11 10:38:28;;;;;;;8.85;6.93;;;18.90;1.00;;;;;;7367879;19;20014;-65
2022/09/11 10:41:08;;;;;;;6.40;5.80;;;18.70;1.00;;;;;;7365455;19;20014;-66
2022/09/11 10:43:52;;;;;;;7.43;6.32;;;19.10;1.00;;;;;;7389853;19;20011;-66
2022/09/11 10:46:35;;;;;;;6.38;5.40;;;19.80;1.00;;;;;;7365572;19;20011;-64
2022/09/11 10:49:26;;;;;;;6.25;5.65;;;19.40;1.00;;;;;;7368825;19;20010;-65
2022/09/11 10:52:04;;;;;;;6.22;5.28;;;19.40;1.00;;;;;;7367118;19;20015;-66
2022/09/11 10:54:43;;;;;;;6.18;5.20;;;19.50;1.00;;;;;;7368880;19;20042;-65
2022/09/11 10:57:22;;;;;;;6.85;6.05;;;19.80;1.00;;;;;;7367910;19;20030;-66
2022/09/11 11:00:09;;;;;;;6.00;5.40;;;19.60;1.00;;;;;;7366824;19;20011;-64
2022/09/11 11:02:42;;;;;;;8.45;6.05;;;19.60;1.00;;;;;;7367052;19;20013;-65
2022/09/11 11:05:23;;;;;;;7.03;5.70;;;19.50;1.00;;;;;;7368512;19;20046;-66
2022/09/11 11:08:40;;;;;;;8.07;5.20;;;19.60;1.00;;;;;;7365025;19;20014;-66
2022/09/11 11:11:26;;;;;;;7.43;5.45;;;19.60;1.00;;;;;;7363874;19;20018;-67
2022/09/11 11:14:15;;;;;;;6.95;5.63;;;19.60;1.00;;;;;;7367924;19;20474;-65
2022/09/11 11:16:55;;;;;;;6.22;5.35;;;19.50;1.00;;;;;;7364498;19;20098;-65
2022/09/11 11:19:41;;;;;;;6.47;5.38;;;19.30;1.00;;;;;;7388528;19;20095;-66
2022/09/11 11:22:22;;;;;;;8.38;5.97;;;19.00;1.00;;;;;;7370968;19;20025;-66
2022/09/11 11:25:07;;;;;;;6.30;5.70;;;19.40;1.00;;;;;;7375052;19;20430;-65
2022/09/11 11:28:05;;;;;;;6.82;6.15;;;19.80;1.00;;;;;;7372901;19;20014;-66
2022/09/11 11:30:43;;;;;;;7.45;6.05;;;19.80;1.00;;;;;;7372867;19;20107;-65
2022/09/11 11:33:30;;;;;;;8.68;6.10;;;19.80;1.00;;;;;;7375085;19;20562;-65
2022/09/11 11:36:05;;;;;;;7.13;5.57;;;20.00;1.00;;;;;;7374743;19;20510;-65
2022/09/11 11:38:42;;;;;;;6.20;4.82;;;19.70;1.00;;;;;;7373158;19;20014;-65
2022/09/11 11:41:19;;;;;;;7.22;5.07;;;20.30;1.00;;;;;;7371023;19;20011;-65
2022/09/11 11:43:52;;;;;;;6.97;5.15;;;20.40;1.00;;;;;;7372706;19;20132;-66
2022/09/11 11:46:29;;;;;;;7.93;5.72;;;20.30;1.00;;;;;;7394687;19;20011;-65
2022/09/11 11:49:01;;;;;;;6.47;5.88;;;20.40;1.00;;;;;;7375023;19;20023;-66
2022/09/11 11:51:40;;;;;;;5.65;5.05;;;20.60;1.00;;;;;;7371137;19;20011;-63
2022/09/11 11:54:17;;;;;;;6.10;5.28;;;20.10;1.00;;;;;;7374090;19;21306;-65
2022/09/11 11:56:51;;;;;;;7.00;5.55;;;20.20;1.00;;;;;;7372432;19;20359;-65
2022/09/11 11:59:30;;;;;;;6.93;5.85;;;20.20;1.00;;;;;;7373655;19;20493;-65
2022/09/11 12:02:12;;;;;;;6.13;5.13;;;20.30;1.00;;;;;;7369892;19;20002;-66
2022/09/11 12:04:47;;;;;;;5.70;5.03;;;20.30;1.00;;;;;;7373882;19;20014;-64
2022/09/11 12:07:20;;;;;;;6.18;4.55;;;20.00;1.00;;;;;;7392104;19;20046;-65
2022/09/11 12:09:51;;;;;;;6.60;5.07;;;20.60;1.00;;;;;;7372468;19;20013;-64
2022/09/11 12:12:23;;;;;;;7.57;5.13;;;20.90;1.00;;;;;;7371825;19;20063;-64
2022/09/11 12:14:55;;;;;;;6.40;4.80;;;20.80;1.00;;;;;;7373821;19;20006;-65
2022/09/11 12:17:31;;;;;;;5.95;4.95;;;20.90;1.00;;;;;;7370715;19;20007;-65
2022/09/11 12:20:32;;;;;;;6.28;5.45;;;20.70;1.00;;;;;;7372515;19;20018;-65
2022/09/11 12:23:02;;;;;;;6.32;5.32;;;20.40;1.00;;;;;;7372082;19;20034;-67
2022/09/11 12:25:52;;;;;;;5.72;5.15;;;20.00;1.00;;;;;;7394058;19;20031;-65
2022/09/11 12:28:24;;;;;;;6.68;5.20;;;20.00;1.00;;;;;;7372416;19;20025;-65
2022/09/11 12:30:58;;;;;;;6.00;4.80;;;19.80;1.00;;;;;;7371376;19;20035;-64
2022/09/11 12:33:57;;;;;;;4.97;4.35;;;20.00;1.00;;;;;;7370795;19;20520;-65
2022/09/11 12:36:35;;;;;;;6.93;5.05;;;19.90;1.00;;;;;;7370020;19;20014;-64
2022/09/11 12:39:19;;;;;;;5.85;5.25;;;20.10;1.00;;;;;;7372870;19;20011;-65
2022/09/11 12:41:49;;;;;;;5.93;5.18;;;20.00;1.00;;;;;;7370181;19;20022;-65
2022/09/11 12:44:34;;;;;;;5.80;5.22;;;19.80;1.00;;;;;;7373291;19;20039;-66
2022/09/11 12:47:12;;;;;;;5.25;4.75;;;19.80;1.00;;;;;;7370403;19;20011;-65
2022/09/11 12:49:55;;;;;;;5.57;4.65;;;19.90;1.00;;;;;;7371082;19;20010;-65
2022/09/11 12:52:38;;;;;;;5.75;5.13;;;19.70;1.00;;;;;;7391464;19;20022;-65
2022/09/11 12:55:30;;;;;;;5.80;5.20;;;19.80;1.00;;;;;;7372775;19;20003;-65
2022/09/11 12:58:03;;;;;;;6.45;5.18;;;19.70;1.00;;;;;;7370032;19;20002;-64
2022/09/11 13:00:38;;;;;;;6.07;5.47;;;19.40;1.00;;;;;;7368816;19;20015;-65
2022/09/11 13:03:17;;;;;;;8.05;5.50;;;19.60;1.00;;;;;;7371118;19;20011;-64
2022/09/11 13:05:55;;;;;;;6.40;5.80;;;19.50;1.00;;;;;;7370135;19;20010;-65
2022/09/11 13:08:28;;;;;;;6.03;5.30;;;19.50;1.00;;;;;;7370311;19;20013;-65
2022/09/11 13:11:27;;;;;;;6.93;5.45;;;19.60;1.00;;;;;;7369542;19;20014;-66
2022/09/11 13:13:58;;;;;;;9.02;6.25;;;19.80;1.00;;;;;;7370409;19;20026;-65
2022/09/11 13:16:30;;;;;;;6.63;5.70;;;19.50;1.00;;;;;;7390441;19;20474;-64
2022/09/11 13:19:02;;;;;;;6.15;5.30;;;19.50;1.00;;;;;;7371130;19;20021;-64
2022/09/11 13:21:37;;;;;;;6.47;5.88;;;19.70;1.00;;;;;;7366946;19;20010;-65
2022/09/11 13:24:24;;;;;;;6.22;5.63;;;20.20;1.00;;;;;;7370955;19;20014;-65
2022/09/11 13:26:58;;;;;;;5.85;5.35;;;20.10;1.00;;;;;;7370000;19;20010;-65
2022/09/11 13:29:30;;;;;;;6.13;5.47;;;20.10;1.00;;;;;;7370414;19;20079;-65